createdAt,value
2024-05-09T00:00:29.769Z,74.70
2024-05-09T00:03:00.405Z,74.70
2024-05-09T00:05:28.672Z,74.60
2024-05-09T00:07:57.742Z,74.60
2024-05-09T00:10:34.603Z,74.70
2024-05-09T00:13:05.451Z,74.60
2024-05-09T00:15:34.786Z,74.60
2024-05-09T00:18:08.177Z,74.60
2024-05-09T00:20:41.297Z,74.70
2024-05-09T00:23:16.766Z,74.60
2024-05-09T00:25:48.079Z,74.70
2024-05-09T00:28:20.241Z,74.60
2024-05-09T00:30:50.962Z,74.70
2024-05-09T00:33:21.495Z,74.60
2024-05-09T00:35:50.471Z,74.60
2024-05-09T00:38:18.456Z,74.60
2024-05-09T00:40:48.239Z,74.70
2024-05-09T00:43:17.360Z,74.60
2024-05-09T00:45:45.403Z,74.60
2024-05-09T00:48:18.661Z,74.60
2024-05-09T00:50:56.796Z,74.70
2024-05-09T00:53:33.445Z,74.60
2024-05-09T00:56:12.984Z,74.60
2024-05-09T00:58:49.425Z,74.60
2024-05-09T01:01:26.106Z,74.70
2024-05-09T01:03:57.365Z,74.80
2024-05-09T01:06:30.069Z,74.70
2024-05-09T01:09:03.936Z,74.70
2024-05-09T01:11:42.578Z,74.70
2024-05-09T01:14:12.561Z,75.00
2024-05-09T01:16:41.077Z,74.80
2024-05-09T01:19:24.227Z,75.00
2024-05-09T01:21:53.045Z,75.00
2024-05-09T01:24:22.073Z,75.00
2024-05-09T01:26:50.870Z,75.00
2024-05-09T01:29:25.884Z,75.00
2024-05-09T01:31:54.912Z,75.00
2024-05-09T01:34:24.795Z,75.00
2024-05-09T01:36:53.232Z,75.00
2024-05-09T01:39:21.729Z,75.00
2024-05-09T01:42:01.680Z,75.00
2024-05-09T01:44:33.402Z,75.00
2024-05-09T01:47:03.061Z,75.00
2024-05-09T01:49:36.444Z,75.00
2024-05-09T01:52:06.738Z,75.00
2024-05-09T01:54:38.195Z,75.00
2024-05-09T01:57:06.493Z,75.00
2024-05-09T01:59:34.901Z,75.00
2024-05-09T02:02:04.543Z,75.00
2024-05-09T02:04:33.566Z,75.00
2024-05-09T02:07:01.403Z,75.00
2024-05-09T02:09:32.109Z,75.00
2024-05-09T02:12:00.132Z,75.00
2024-05-09T02:14:30.081Z,75.00
2024-05-09T02:17:01.754Z,75.00
2024-05-09T02:19:35.460Z,75.00
2024-05-09T02:22:03.517Z,75.50
2024-05-09T02:24:32.695Z,74.70
2024-05-09T02:27:04.042Z,74.80
2024-05-09T02:29:32.481Z,75.00
2024-05-09T02:32:02.984Z,75.00
2024-05-09T02:34:32.517Z,75.10
2024-05-09T02:37:06.327Z,75.20
2024-05-09T02:39:35.327Z,75.20
2024-05-09T02:42:07.442Z,75.20
2024-05-09T02:44:38.579Z,75.20
2024-05-09T02:47:08.273Z,75.20
2024-05-09T02:49:36.415Z,75.20
2024-05-09T02:52:04.368Z,75.20
2024-05-09T02:54:33.294Z,75.20
2024-05-09T02:57:00.879Z,75.10
2024-05-09T02:59:30.897Z,75.10
2024-05-09T03:02:00.381Z,75.10
2024-05-09T03:04:29.458Z,75.10
2024-05-09T03:06:58.521Z,75.10
2024-05-09T03:09:27.523Z,75.10
2024-05-09T03:11:57.946Z,75.00
2024-05-09T03:14:28.923Z,75.00
2024-05-09T03:16:56.750Z,75.00
2024-05-09T03:19:26.220Z,74.90
2024-05-09T03:21:55.246Z,75.00
2024-05-09T03:24:26.257Z,75.00
2024-05-09T03:26:55.686Z,75.10
2024-05-09T03:29:23.243Z,75.10
2024-05-09T03:31:53.656Z,75.20
2024-05-09T03:34:24.643Z,75.20
2024-05-09T03:36:52.730Z,75.20
2024-05-09T03:39:23.280Z,75.20
2024-05-09T03:41:51.358Z,75.30
2024-05-09T03:44:23.373Z,75.30
2024-05-09T03:46:53.591Z,75.30
2024-05-09T03:49:24.963Z,75.20
2024-05-09T03:51:53.637Z,75.20
2024-05-09T03:54:26.582Z,75.60
2024-05-09T03:56:54.947Z,74.90
2024-05-09T03:59:26.282Z,74.90
2024-05-09T04:01:55.748Z,74.90
2024-05-09T04:04:24.329Z,74.80
2024-05-09T04:06:52.491Z,74.80
2024-05-09T04:09:21.353Z,74.80
2024-05-09T04:11:50.971Z,74.80
2024-05-09T04:14:20.813Z,74.80
2024-05-09T04:16:54.051Z,74.80
2024-05-09T04:19:24.841Z,74.80
2024-05-09T04:21:58.048Z,74.80
2024-05-09T04:24:27.163Z,74.90
2024-05-09T04:26:54.941Z,74.90
2024-05-09T04:29:24.483Z,74.90
2024-05-09T04:31:52.394Z,74.90
2024-05-09T04:34:25.437Z,74.90
2024-05-09T04:36:53.230Z,75.00
2024-05-09T04:39:20.980Z,75.00
2024-05-09T04:41:49.039Z,75.10
2024-05-09T04:44:16.677Z,75.20
2024-05-09T04:46:45.530Z,75.20
2024-05-09T04:49:17.539Z,75.30
2024-05-09T04:51:46.245Z,75.30
2024-05-09T04:54:30.223Z,75.30
2024-05-09T04:57:03.794Z,75.40
2024-05-09T04:59:35.872Z,75.40
2024-05-09T05:02:05.581Z,75.40
2024-05-09T05:04:35.235Z,75.30
2024-05-09T05:07:06.035Z,75.30
2024-05-09T05:09:34.413Z,75.30
2024-05-09T05:12:25.667Z,75.30
2024-05-09T05:14:54.293Z,75.20
2024-05-09T05:17:24.396Z,75.00
2024-05-09T05:19:52.664Z,75.00
2024-05-09T05:22:21.577Z,75.00
2024-05-09T05:24:49.304Z,75.00
2024-05-09T05:27:18.335Z,75.00
2024-05-09T05:29:49.669Z,74.80
2024-05-09T05:32:19.679Z,74.80
2024-05-09T05:34:49.606Z,75.00
2024-05-09T05:37:18.991Z,75.00
2024-05-09T05:39:46.952Z,75.00
2024-05-09T05:42:19.181Z,75.00
2024-05-09T05:44:52.135Z,75.10
2024-05-09T05:47:23.099Z,75.10
2024-05-09T05:49:53.407Z,75.00
2024-05-09T05:52:20.847Z,75.00
2024-05-09T05:54:52.746Z,75.20
2024-05-09T05:57:21.946Z,75.30
2024-05-09T05:59:49.442Z,75.40
2024-05-09T06:02:18.569Z,75.40
2024-05-09T06:04:46.321Z,75.10
2024-05-09T06:07:14.024Z,74.70
2024-05-09T06:09:43.439Z,74.50
2024-05-09T06:12:13.492Z,74.30
2024-05-09T06:14:43.388Z,74.40
2024-05-09T06:17:13.353Z,74.60
2024-05-09T06:19:41.609Z,74.50
2024-05-09T06:22:15.233Z,74.60
2024-05-09T06:24:44.939Z,74.60
2024-05-09T06:27:13.994Z,74.70
2024-05-09T06:29:44.784Z,74.80
2024-05-09T06:32:13.813Z,75.00
2024-05-09T06:34:44.043Z,75.20
2024-05-09T06:37:17.405Z,75.30
2024-05-09T06:39:48.490Z,75.30
2024-05-09T06:42:18.206Z,75.20
2024-05-09T06:44:53.662Z,75.10
2024-05-09T06:47:23.556Z,75.00
2024-05-09T06:49:53.749Z,74.90
2024-05-09T06:52:25.696Z,74.90
2024-05-09T06:54:55.386Z,74.90
2024-05-09T06:57:25.707Z,74.90
2024-05-09T07:00:02.950Z,74.80
2024-05-09T07:02:35.159Z,74.60
2024-05-09T07:05:07.561Z,74.70
2024-05-09T07:07:35.441Z,74.80
2024-05-09T07:10:07.933Z,74.70
2024-05-09T07:12:37.568Z,74.80
2024-05-09T07:15:07.121Z,74.90
2024-05-09T07:17:36.630Z,75.10
2024-05-09T07:20:08.974Z,75.40
2024-05-09T07:22:43.014Z,75.80
2024-05-09T07:25:15.418Z,76.20
2024-05-09T07:27:46.559Z,76.30
2024-05-09T07:30:23.514Z,76.20
2024-05-09T07:33:00.260Z,75.80
2024-05-09T07:35:34.159Z,75.50
2024-05-09T07:38:02.802Z,75.50
2024-05-09T07:40:36.483Z,75.50
2024-05-09T07:43:07.608Z,75.20
2024-05-09T07:45:48.567Z,74.60
2024-05-09T07:52:39.348Z,74.50
2024-05-09T07:53:49.618Z,74.20
2024-05-09T07:56:22.705Z,74.10
2024-05-09T07:58:54.416Z,74.10
2024-05-09T08:01:27.618Z,74.00
2024-05-09T08:03:56.018Z,74.10
2024-05-09T08:06:24.342Z,74.00
2024-05-09T08:08:52.021Z,74.00
2024-05-09T08:11:20.956Z,73.90
2024-05-09T08:13:52.568Z,73.70
2024-05-09T08:16:24.915Z,73.50
2024-05-09T08:18:52.693Z,73.20
2024-05-09T08:21:20.328Z,73.10
2024-05-09T08:23:47.869Z,73.10
2024-05-09T08:26:18.253Z,73.00
2024-05-09T08:28:48.030Z,72.80
2024-05-09T08:31:15.793Z,72.60
2024-05-09T08:33:49.063Z,72.30
2024-05-09T08:36:23.061Z,72.00
2024-05-09T08:38:51.759Z,72.00
2024-05-09T08:41:19.439Z,72.00
2024-05-09T08:43:50.111Z,71.80
2024-05-09T08:46:20.542Z,72.00
2024-05-09T08:48:50.246Z,71.80
2024-05-09T08:51:19.311Z,71.60
2024-05-09T08:53:51.982Z,71.70
2024-05-09T08:56:32.969Z,71.10
2024-05-09T08:59:06.630Z,70.90
2024-05-09T09:01:40.907Z,71.10
2024-05-09T09:04:16.025Z,71.10
2024-05-09T09:06:46.458Z,70.90
2024-05-09T09:09:19.259Z,71.00
2024-05-09T09:11:52.126Z,70.90
2024-05-09T09:14:19.791Z,70.60
2024-05-09T09:16:50.326Z,70.40
2024-05-09T09:19:19.044Z,69.40
2024-05-09T09:21:53.903Z,69.00
2024-05-09T09:24:24.614Z,68.40
2024-05-09T09:26:53.390Z,68.20
2024-05-09T09:29:23.089Z,68.30
2024-05-09T09:32:10.909Z,68.20
2024-05-09T09:34:38.435Z,66.60
2024-05-09T09:37:16.212Z,67.10
2024-05-09T09:39:49.121Z,65.90
2024-05-09T09:42:19.274Z,65.50
2024-05-09T09:45:01.810Z,66.00
2024-05-09T09:47:34.580Z,66.30
2024-05-09T09:50:09.592Z,65.90
2024-05-09T09:52:45.450Z,65.80
2024-05-09T09:55:13.999Z,65.60
2024-05-09T09:57:48.262Z,64.80
2024-05-09T10:00:30.608Z,64.20
2024-05-09T10:03:01.961Z,63.80
2024-05-09T10:05:31.285Z,64.00
2024-05-09T10:08:08.428Z,63.70
2024-05-09T10:10:41.088Z,63.20
2024-05-09T10:13:10.857Z,62.80
2024-05-09T10:15:56.316Z,62.50
2024-05-09T10:21:03.137Z,62.40
2024-05-09T10:23:40.031Z,62.30
2024-05-09T10:26:11.857Z,62.10
2024-05-09T10:28:48.295Z,61.70
2024-05-09T10:31:20.801Z,60.90
2024-05-09T10:33:55.032Z,61.10
2024-05-09T10:36:30.181Z,61.40
2024-05-09T10:39:00.648Z,61.50
2024-05-09T10:41:41.887Z,61.20
2024-05-09T10:44:18.771Z,61.30
2024-05-09T10:46:47.639Z,60.80
2024-05-09T10:49:23.344Z,61.00
2024-05-09T10:51:56.335Z,60.70
2024-05-09T10:54:40.656Z,60.50
2024-05-09T10:57:12.526Z,60.60
2024-05-09T10:59:45.333Z,60.70
2024-05-09T11:02:15.687Z,60.20
2024-05-09T11:04:47.983Z,60.50
2024-05-09T11:07:26.418Z,60.30
2024-05-09T11:09:56.230Z,60.40
2024-05-09T11:12:24.920Z,60.60
2024-05-09T11:14:57.822Z,60.30
2024-05-09T11:17:28.087Z,59.50
2024-05-09T11:20:00.741Z,59.50
2024-05-09T11:22:41.519Z,59.60
2024-05-09T11:25:15.361Z,58.30
2024-05-09T11:27:47.680Z,59.10
2024-05-09T11:30:29.779Z,58.60
2024-05-09T11:33:05.282Z,58.30
2024-05-09T11:35:40.599Z,58.50
2024-05-09T11:38:11.007Z,58.50
2024-05-09T11:40:48.202Z,58.20
2024-05-09T11:43:20.776Z,58.20
2024-05-09T11:45:49.295Z,58.30
2024-05-09T11:48:19.783Z,57.80
2024-05-09T11:50:51.900Z,57.60
2024-05-09T11:53:21.710Z,57.10
2024-05-09T11:55:52.801Z,57.10
2024-05-09T11:58:25.311Z,56.30
2024-05-09T12:00:56.489Z,56.20
2024-05-09T12:03:25.406Z,55.80
2024-05-09T12:05:55.989Z,55.70
2024-05-09T12:08:26.148Z,55.50
2024-05-09T12:11:00.597Z,55.30
2024-05-09T12:13:30.692Z,55.10
2024-05-09T12:16:13.078Z,55.20
2024-05-09T12:18:47.069Z,55.10
2024-05-09T12:21:21.460Z,54.80
2024-05-09T12:23:52.702Z,55.10
2024-05-09T12:26:22.426Z,55.60
2024-05-09T12:28:51.964Z,55.90
2024-05-09T12:31:28.571Z,55.90
2024-05-09T12:33:59.592Z,55.70
2024-05-09T12:36:33.633Z,56.10
2024-05-09T12:39:10.052Z,55.90
2024-05-09T12:41:42.526Z,56.00
2024-05-09T12:44:11.369Z,55.80
2024-05-09T12:46:41.125Z,55.60
2024-05-09T12:49:13.758Z,55.00
2024-05-09T12:51:47.001Z,54.50
2024-05-09T12:54:17.806Z,54.60
2024-05-09T12:56:47.458Z,54.80
2024-05-09T12:59:17.380Z,54.80
2024-05-09T13:01:46.176Z,54.50
2024-05-09T13:04:18.418Z,54.30
2024-05-09T13:06:47.687Z,53.90
2024-05-09T13:09:18.730Z,54.10
2024-05-09T13:11:47.144Z,53.90
2024-05-09T13:14:20.762Z,53.90
2024-05-09T13:16:50.530Z,53.80
2024-05-09T13:19:19.775Z,53.70
2024-05-09T13:21:52.102Z,53.50
2024-05-09T13:24:27.586Z,52.90
2024-05-09T13:26:59.008Z,52.80
2024-05-09T13:29:28.466Z,52.90
2024-05-09T13:31:56.219Z,52.80
2024-05-09T13:34:28.410Z,52.50
2024-05-09T13:36:59.302Z,52.70
2024-05-09T13:39:28.212Z,52.80
2024-05-09T13:41:58.917Z,52.80
2024-05-09T13:44:29.605Z,52.30
2024-05-09T13:47:00.396Z,51.90
2024-05-09T13:49:29.327Z,52.20
2024-05-09T13:51:59.144Z,51.70
2024-05-09T13:54:28.889Z,52.10
2024-05-09T13:57:00.592Z,52.20
2024-05-09T13:59:31.368Z,52.00
2024-05-09T14:02:01.750Z,52.10
2024-05-09T14:04:31.635Z,51.90
2024-05-09T14:07:05.040Z,51.90
2024-05-09T14:09:33.931Z,51.70
2024-05-09T14:12:09.734Z,51.50
2024-05-09T14:14:40.352Z,51.50
2024-05-09T14:17:10.239Z,51.40
2024-05-09T14:19:40.400Z,51.50
2024-05-09T14:22:10.941Z,51.60
2024-05-09T14:24:39.891Z,51.50
2024-05-09T14:27:11.395Z,51.30
2024-05-09T14:29:39.424Z,51.40
2024-05-09T14:32:10.512Z,51.50
2024-05-09T14:34:41.019Z,51.20
2024-05-09T14:37:11.087Z,51.20
2024-05-09T14:39:43.992Z,51.00
2024-05-09T14:42:12.173Z,51.30
2024-05-09T14:44:41.135Z,51.70
2024-05-09T14:47:09.072Z,51.70
2024-05-09T14:49:39.710Z,51.70
2024-05-09T14:52:12.275Z,51.70
2024-05-09T14:54:49.126Z,50.30
2024-05-09T14:57:22.581Z,50.60
2024-05-09T14:59:54.518Z,50.80
2024-05-09T15:02:22.626Z,50.90
2024-05-09T15:04:55.916Z,51.00
2024-05-09T15:07:28.461Z,51.30
2024-05-09T15:10:03.630Z,51.30
2024-05-09T15:12:32.383Z,51.60
2024-05-09T15:14:59.986Z,51.50
2024-05-09T15:17:29.433Z,51.10
2024-05-09T15:19:59.131Z,51.10
2024-05-09T15:22:29.291Z,51.00
2024-05-09T15:24:57.382Z,50.80
2024-05-09T15:27:26.824Z,50.70
2024-05-09T15:29:59.131Z,50.30
2024-05-09T15:32:32.998Z,50.30
2024-05-09T15:35:03.007Z,50.10
2024-05-09T15:37:32.791Z,50.20
2024-05-09T15:40:00.756Z,49.50
2024-05-09T15:42:33.530Z,49.30
2024-05-09T15:45:02.641Z,49.10
2024-05-09T15:47:33.382Z,49.00
2024-05-09T15:50:09.764Z,49.00
2024-05-09T15:52:51.354Z,48.90
2024-05-09T15:55:20.871Z,48.00
2024-05-09T15:58:23.011Z,47.40
2024-05-09T16:00:54.090Z,45.80
2024-05-09T16:03:23.814Z,47.50
2024-05-09T16:05:53.217Z,47.20
2024-05-09T16:08:21.244Z,47.00
2024-05-09T16:10:49.380Z,46.80
2024-05-09T16:13:19.846Z,46.30
2024-05-09T16:15:49.975Z,46.10
2024-05-09T16:18:20.061Z,46.10
2024-05-09T16:20:50.248Z,45.60
2024-05-09T16:23:20.276Z,45.30
2024-05-09T16:25:50.690Z,44.90
2024-05-09T16:28:27.023Z,44.30
2024-05-09T16:30:56.551Z,44.50
2024-05-09T16:33:26.357Z,44.00
2024-05-09T16:35:56.171Z,43.30
2024-05-09T16:38:23.799Z,42.90
2024-05-09T16:40:55.895Z,42.50
2024-05-09T16:43:26.645Z,42.00
2024-05-09T16:45:55.186Z,42.30
2024-05-09T16:48:26.878Z,41.70
2024-05-09T16:50:56.858Z,41.80
2024-05-09T16:53:28.918Z,41.40
2024-05-09T16:56:00.245Z,41.40
2024-05-09T16:58:31.433Z,41.00
2024-05-09T17:00:59.298Z,40.60
2024-05-09T17:03:30.047Z,40.40
2024-05-09T17:05:58.985Z,40.00
2024-05-09T17:08:27.928Z,39.70
2024-05-09T17:10:55.926Z,39.40
2024-05-09T17:14:58.459Z,39.10
2024-05-09T17:17:36.889Z,38.30
2024-05-09T17:20:22.496Z,39.00
2024-05-09T17:22:57.903Z,38.40
2024-05-09T17:25:30.350Z,38.20
2024-05-09T17:28:05.873Z,38.00
2024-05-09T17:30:40.584Z,37.80
2024-05-09T17:33:12.897Z,37.30
2024-05-09T17:35:43.435Z,37.40
2024-05-09T17:38:11.642Z,37.30
2024-05-09T17:40:40.860Z,37.30
2024-05-09T17:43:11.319Z,37.40
2024-05-09T17:45:47.361Z,37.30
2024-05-09T17:48:16.150Z,37.30
2024-05-09T17:50:44.603Z,37.20
2024-05-09T17:53:19.263Z,37.30
2024-05-09T17:55:50.907Z,37.20
2024-05-09T17:58:20.494Z,37.20
2024-05-09T18:00:51.179Z,37.20
2024-05-09T18:03:19.069Z,37.00
2024-05-09T18:05:46.850Z,37.20
2024-05-09T18:08:14.463Z,37.00
2024-05-09T18:10:42.373Z,36.90
2024-05-09T18:13:13.911Z,36.90
2024-05-09T18:15:41.793Z,37.00
2024-05-09T18:18:10.964Z,37.30
2024-05-09T18:20:45.602Z,37.40
2024-05-09T18:23:18.805Z,37.70
2024-05-09T18:25:47.926Z,37.90
2024-05-09T18:28:17.400Z,38.30
2024-05-09T18:30:47.145Z,38.70
2024-05-09T18:33:15.171Z,39.20
2024-05-09T18:35:45.118Z,39.70
2024-05-09T18:38:13.118Z,40.50
2024-05-09T18:40:45.910Z,40.80
2024-05-09T18:43:16.643Z,41.40
2024-05-09T18:45:46.590Z,41.70
2024-05-09T18:48:15.534Z,42.10
2024-05-09T18:51:06.212Z,42.30
2024-05-09T18:53:35.520Z,43.40
2024-05-09T18:56:03.759Z,42.90
2024-05-09T18:58:52.283Z,43.20
2024-05-09T19:01:28.442Z,43.50
2024-05-09T19:04:00.935Z,43.80
2024-05-09T19:06:47.031Z,44.00
2024-05-09T19:12:15.972Z,44.80
2024-05-09T19:14:54.268Z,44.80
2024-05-09T19:17:22.391Z,45.40
2024-05-09T19:19:53.976Z,45.20
2024-05-09T19:22:23.644Z,45.40
2024-05-09T19:24:54.687Z,45.60
2024-05-09T19:27:23.424Z,45.80
2024-05-09T19:29:54.009Z,45.90
2024-05-09T19:32:25.460Z,46.20
2024-05-09T19:34:54.536Z,46.40
2024-05-09T19:37:23.552Z,46.70
2024-05-09T19:39:51.228Z,47.00
2024-05-09T19:42:19.917Z,47.20
2024-05-09T19:44:49.190Z,47.50
2024-05-09T19:47:17.066Z,47.70
2024-05-09T19:49:45.633Z,47.90
2024-05-09T19:52:13.364Z,48.20
2024-05-09T19:54:41.406Z,48.40
2024-05-09T19:57:09.233Z,48.60
2024-05-09T19:59:37.681Z,48.70
2024-05-09T20:02:05.362Z,49.00
2024-05-09T20:04:33.523Z,49.30
2024-05-09T20:07:03.212Z,49.50
2024-05-09T20:09:31.131Z,49.70
2024-05-09T20:12:03.017Z,49.80
2024-05-09T20:14:34.042Z,50.00
2024-05-09T20:17:03.471Z,50.30
2024-05-09T20:19:33.206Z,50.30
2024-05-09T20:22:00.874Z,50.50
2024-05-09T20:24:28.990Z,50.80
2024-05-09T20:26:59.732Z,51.00
2024-05-09T20:29:30.278Z,51.10
2024-05-09T20:31:58.349Z,51.30
2024-05-09T20:34:32.729Z,51.60
2024-05-09T20:37:01.030Z,51.80
2024-05-09T20:39:29.508Z,51.80
2024-05-09T20:41:58.236Z,52.00
2024-05-09T20:44:25.680Z,52.10
2024-05-09T20:46:53.094Z,52.30
2024-05-09T20:49:21.747Z,52.50
2024-05-09T20:51:49.374Z,52.70
2024-05-09T20:54:16.823Z,52.70
2024-05-09T20:56:44.429Z,52.80
2024-05-09T20:59:12.524Z,52.80
2024-05-09T21:01:40.087Z,52.90
2024-05-09T21:04:07.871Z,53.00
2024-05-09T21:06:35.984Z,53.10
2024-05-09T21:09:03.730Z,53.00
2024-05-09T21:11:31.301Z,53.10
2024-05-09T21:13:58.749Z,53.30
2024-05-09T21:16:26.380Z,53.60
2024-05-09T21:18:53.958Z,53.60
2024-05-09T21:21:21.482Z,53.60
2024-05-09T21:23:48.988Z,53.80
2024-05-09T21:26:17.635Z,53.90
2024-05-09T21:28:45.031Z,53.90
2024-05-09T21:31:12.563Z,54.10
2024-05-09T21:33:41.037Z,54.30
2024-05-09T21:36:10.335Z,54.40
2024-05-09T21:38:41.483Z,54.40
2024-05-09T21:41:09.327Z,54.70
2024-05-09T21:43:38.794Z,54.60
2024-05-09T21:46:07.039Z,54.80
2024-05-09T21:48:34.568Z,54.90
2024-05-09T21:51:02.035Z,55.10
2024-05-09T21:53:29.564Z,55.10
2024-05-09T21:55:57.394Z,55.30
2024-05-09T21:58:24.900Z,55.20
2024-05-09T22:00:52.601Z,55.40
2024-05-09T22:03:20.201Z,55.60
2024-05-09T22:05:47.657Z,55.70
2024-05-09T22:08:15.217Z,55.70
2024-05-09T22:10:43.579Z,55.80
2024-05-09T22:13:11.436Z,55.80
2024-05-09T22:15:40.654Z,55.80
2024-05-09T22:18:10.453Z,56.00
2024-05-09T22:20:45.674Z,55.90
2024-05-09T22:23:15.185Z,55.80
2024-05-09T22:25:45.087Z,56.00
2024-05-09T22:28:15.728Z,56.10
2024-05-09T22:30:46.225Z,56.10
2024-05-09T22:33:15.989Z,56.10
2024-05-09T22:35:43.857Z,56.00
2024-05-09T22:38:11.381Z,56.10
2024-05-09T22:40:46.873Z,56.20
2024-05-09T22:43:23.363Z,56.10
2024-05-09T22:45:57.144Z,56.40
2024-05-09T22:48:25.797Z,56.50
2024-05-09T22:50:55.013Z,56.50
2024-05-09T22:53:25.956Z,56.60
2024-05-09T22:55:54.515Z,56.70
2024-05-09T22:58:23.570Z,56.80
2024-05-09T23:00:52.175Z,56.90
2024-05-09T23:03:21.989Z,57.00
2024-05-09T23:05:50.180Z,56.70
2024-05-09T23:08:17.784Z,56.80
2024-05-09T23:10:45.195Z,57.00
2024-05-09T23:13:12.666Z,57.20
2024-05-09T23:15:40.376Z,57.20
2024-05-09T23:18:08.238Z,57.20
2024-05-09T23:20:39.046Z,57.60
2024-05-09T23:23:10.146Z,57.80
2024-05-09T23:25:39.030Z,57.80
2024-05-09T23:28:07.045Z,57.80
2024-05-09T23:30:38.748Z,58.10
2024-05-09T23:33:12.387Z,58.20
2024-05-09T23:35:44.604Z,58.30
2024-05-09T23:38:13.378Z,58.70
2024-05-09T23:40:42.410Z,58.60
2024-05-09T23:43:12.609Z,58.60
2024-05-09T23:45:42.143Z,58.40
2024-05-09T23:48:11.245Z,58.40
2024-05-09T23:50:40.444Z,58.50
2024-05-09T23:53:10.019Z,58.60
2024-05-09T23:55:38.784Z,58.60
2024-05-09T23:58:07.690Z,58.80
